sensor_id;sensor_type;location;lat;lon;timestamp;pressure;altitude;pressure_sealevel;temperature;humidity
64340;BME280;63709;53.258;-8.814;2023-04-15T00:00:11;101572.22;;;9.99;100.00
64340;BME280;63709;53.258;-8.814;2023-04-15T00:02:37;101568.66;;;9.84;100.00
64340;BME280;63709;53.258;-8.814;2023-04-15T00:05:08;101567.41;;;9.76;100.00
64340;BME280;63709;53.258;-8.814;2023-04-15T00:07:34;101574.53;;;9.75;100.00
64340;BME280;63709;53.258;-8.814;2023-04-15T00:10:01;101573.88;;;9.72;100.00
64340;BME280;63709;53.258;-8.814;2023-04-15T00:12:28;101586.25;;;9.73;100.00
64340;BME280;63709;53.258;-8.814;2023-04-15T00:14:54;101583.34;;;9.61;100.00
64340;BME280;63709;53.258;-8.814;2023-04-15T00:17:21;101597.72;;;9.59;100.00
64340;BME280;63709;53.258;-8.814;2023-04-15T00:19:46;101604.72;;;9.45;100.00
64340;BME280;63709;53.258;-8.814;2023-04-15T00:22:13;101587.53;;;9.35;100.00
64340;BME280;63709;53.258;-8.814;2023-04-15T00:24:38;101602.84;;;9.32;100.00
64340;BME280;63709;53.258;-8.814;2023-04-15T00:27:04;101616.75;;;9.37;100.00
64340;BME280;63709;53.258;-8.814;2023-04-15T00:29:30;101618.56;;;9.36;100.00
64340;BME280;63709;53.258;-8.814;2023-04-15T00:31:56;101602.72;;;9.33;100.00
64340;BME280;63709;53.258;-8.814;2023-04-15T00:34:25;101617.59;;;9.37;100.00
64340;BME280;63709;53.258;-8.814;2023-04-15T00:36:52;101618.78;;;9.48;100.00
64340;BME280;63709;53.258;-8.814;2023-04-15T00:39:18;101604.28;;;9.37;100.00
64340;BME280;63709;53.258;-8.814;2023-04-15T00:41:45;101617.44;;;9.40;100.00
64340;BME280;63709;53.258;-8.814;2023-04-15T00:44:10;101616.56;;;9.40;100.00
64340;BME280;63709;53.258;-8.814;2023-04-15T00:46:37;101627.50;;;9.35;100.00
64340;BME280;63709;53.258;-8.814;2023-04-15T00:49:04;101618.88;;;9.30;100.00
64340;BME280;63709;53.258;-8.814;2023-04-15T00:51:31;101616.22;;;9.30;100.00
64340;BME280;63709;53.258;-8.814;2023-04-15T00:53:59;101617.44;;;9.25;100.00
64340;BME280;63709;53.258;-8.814;2023-04-15T00:56:27;101606.03;;;9.07;100.00
64340;BME280;63709;53.258;-8.814;2023-04-15T00:58:53;101622.94;;;9.06;100.00
64340;BME280;63709;53.258;-8.814;2023-04-15T01:01:24;101619.50;;;8.88;100.00
64340;BME280;63709;53.258;-8.814;2023-04-15T01:03:51;101626.97;;;8.97;100.00
64340;BME280;63709;53.258;-8.814;2023-04-15T01:06:17;101626.72;;;9.02;100.00
64340;BME280;63709;53.258;-8.814;2023-04-15T01:08:43;101630.25;;;9.02;100.00
64340;BME280;63709;53.258;-8.814;2023-04-15T01:11:12;101633.19;;;8.98;100.00
64340;BME280;63709;53.258;-8.814;2023-04-15T01:13:38;101638.41;;;8.99;100.00
64340;BME280;63709;53.258;-8.814;2023-04-15T01:16:04;101638.22;;;8.86;100.00
64340;BME280;63709;53.258;-8.814;2023-04-15T01:18:31;101639.31;;;8.82;100.00
64340;BME280;63709;53.258;-8.814;2023-04-15T01:20:57;101615.50;;;8.63;100.00
64340;BME280;63709;53.258;-8.814;2023-04-15T01:23:22;101606.53;;;8.48;100.00
64340;BME280;63709;53.258;-8.814;2023-04-15T01:25:49;101633.22;;;8.64;100.00
64340;BME280;63709;53.258;-8.814;2023-04-15T01:28:15;101633.38;;;8.61;100.00
64340;BME280;63709;53.258;-8.814;2023-04-15T01:30:41;101617.81;;;8.54;100.00
64340;BME280;63709;53.258;-8.814;2023-04-15T01:33:07;101628.94;;;8.44;100.00
64340;BME280;63709;53.258;-8.814;2023-04-15T01:35:33;101617.72;;;8.55;100.00
64340;BME280;63709;53.258;-8.814;2023-04-15T01:38:06;101627.81;;;8.48;100.00
64340;BME280;63709;53.258;-8.814;2023-04-15T01:40:34;101621.25;;;8.56;100.00
64340;BME280;63709;53.258;-8.814;2023-04-15T01:43:01;101629.38;;;8.53;100.00
64340;BME280;63709;53.258;-8.814;2023-04-15T01:45:28;101618.94;;;8.50;100.00
64340;BME280;63709;53.258;-8.814;2023-04-15T01:47:53;101639.66;;;8.43;100.00
64340;BME280;63709;53.258;-8.814;2023-04-15T01:50:19;101642.31;;;8.43;100.00
64340;BME280;63709;53.258;-8.814;2023-04-15T01:52:46;101644.28;;;8.39;100.00
64340;BME280;63709;53.258;-8.814;2023-04-15T01:55:13;101653.22;;;8.38;100.00
64340;BME280;63709;53.258;-8.814;2023-04-15T01:57:41;101653.25;;;8.37;100.00
64340;BME280;63709;53.258;-8.814;2023-04-15T02:00:07;101656.78;;;8.37;100.00
64340;BME280;63709;53.258;-8.814;2023-04-15T02:02:33;101661.38;;;8.34;100.00
64340;BME280;63709;53.258;-8.814;2023-04-15T02:05:00;101653.66;;;8.12;100.00
64340;BME280;63709;53.258;-8.814;2023-04-15T02:07:26;101644.91;;;8.10;100.00
64340;BME280;63709;53.258;-8.814;2023-04-15T02:09:54;101655.69;;;8.07;100.00
64340;BME280;63709;53.258;-8.814;2023-04-15T02:12:20;101668.66;;;7.95;100.00
64340;BME280;63709;53.258;-8.814;2023-04-15T02:14:46;101663.97;;;7.83;100.00
64340;BME280;63709;53.258;-8.814;2023-04-15T02:17:13;101679.59;;;7.89;100.00
64340;BME280;63709;53.258;-8.814;2023-04-15T02:19:39;101669.47;;;7.97;100.00
64340;BME280;63709;53.258;-8.814;2023-04-15T02:22:06;101658.59;;;8.02;100.00
64340;BME280;63709;53.258;-8.814;2023-04-15T02:24:33;101656.50;;;8.09;100.00
64340;BME280;63709;53.258;-8.814;2023-04-15T02:27:00;101667.50;;;8.18;100.00
64340;BME280;63709;53.258;-8.814;2023-04-15T02:29:27;101662.81;;;8.23;100.00
64340;BME280;63709;53.258;-8.814;2023-04-15T02:31:52;101649.44;;;8.25;100.00
64340;BME280;63709;53.258;-8.814;2023-04-15T02:34:18;101667.56;;;8.34;100.00
64340;BME280;63709;53.258;-8.814;2023-04-15T02:36:44;101666.94;;;8.12;100.00
64340;BME280;63709;53.258;-8.814;2023-04-15T02:39:12;101675.56;;;8.17;100.00
64340;BME280;63709;53.258;-8.814;2023-04-15T02:41:42;101680.34;;;8.10;100.00
64340;BME280;63709;53.258;-8.814;2023-04-15T02:44:08;101689.16;;;8.11;100.00
64340;BME280;63709;53.258;-8.814;2023-04-15T02:46:35;101699.03;;;8.09;100.00
64340;BME280;63709;53.258;-8.814;2023-04-15T02:49:05;101698.00;;;8.11;100.00
64340;BME280;63709;53.258;-8.814;2023-04-15T02:51:31;101683.00;;;8.10;100.00
64340;BME280;63709;53.258;-8.814;2023-04-15T02:53:57;101695.44;;;8.10;100.00
64340;BME280;63709;53.258;-8.814;2023-04-15T02:56:23;101681.09;;;7.95;100.00
64340;BME280;63709;53.258;-8.814;2023-04-15T02:58:49;101702.00;;;8.03;100.00
64340;BME280;63709;53.258;-8.814;2023-04-15T03:01:15;101712.84;;;7.98;100.00
64340;BME280;63709;53.258;-8.814;2023-04-15T03:03:41;101706.19;;;7.89;100.00
64340;BME280;63709;53.258;-8.814;2023-04-15T03:06:07;101731.47;;;7.98;100.00
64340;BME280;63709;53.258;-8.814;2023-04-15T03:08:33;101720.91;;;7.96;100.00
64340;BME280;63709;53.258;-8.814;2023-04-15T03:10:59;101717.03;;;7.85;100.00
64340;BME280;63709;53.258;-8.814;2023-04-15T03:13:27;101719.13;;;7.78;100.00
64340;BME280;63709;53.258;-8.814;2023-04-15T03:15:54;101713.19;;;7.73;100.00
64340;BME280;63709;53.258;-8.814;2023-04-15T03:18:20;101716.19;;;7.84;100.00
64340;BME280;63709;53.258;-8.814;2023-04-15T03:20:45;101716.66;;;7.75;100.00
64340;BME280;63709;53.258;-8.814;2023-04-15T03:23:12;101694.38;;;7.78;100.00
64340;BME280;63709;53.258;-8.814;2023-04-15T03:25:37;101719.28;;;7.94;100.00
64340;BME280;63709;53.258;-8.814;2023-04-15T03:28:03;101720.03;;;7.96;100.00
64340;BME280;63709;53.258;-8.814;2023-04-15T03:30:29;101725.44;;;7.94;100.00
64340;BME280;63709;53.258;-8.814;2023-04-15T03:32:55;101730.75;;;7.94;100.00
64340;BME280;63709;53.258;-8.814;2023-04-15T03:35:22;101733.97;;;8.01;100.00
64340;BME280;63709;53.258;-8.814;2023-04-15T03:37:48;101731.53;;;7.96;100.00
64340;BME280;63709;53.258;-8.814;2023-04-15T03:40:14;101724.88;;;7.88;100.00
64340;BME280;63709;53.258;-8.814;2023-04-15T03:42:40;101742.16;;;7.96;100.00
64340;BME280;63709;53.258;-8.814;2023-04-15T03:45:06;101752.91;;;7.76;100.00
64340;BME280;63709;53.258;-8.814;2023-04-15T03:47:32;101755.44;;;7.41;100.00
64340;BME280;63709;53.258;-8.814;2023-04-15T03:49:57;101760.09;;;7.55;100.00
64340;BME280;63709;53.258;-8.814;2023-04-15T03:52:24;101759.63;;;7.47;100.00
64340;BME280;63709;53.258;-8.814;2023-04-15T03:54:49;101754.38;;;7.45;100.00
64340;BME280;63709;53.258;-8.814;2023-04-15T03:57:15;101752.72;;;7.43;100.00
64340;BME280;63709;53.258;-8.814;2023-04-15T03:59:42;101749.69;;;7.50;100.00
64340;BME280;63709;53.258;-8.814;2023-04-15T04:02:08;101744.09;;;7.38;100.00
64340;BME280;63709;53.258;-8.814;2023-04-15T04:04:34;101736.13;;;7.19;100.00
64340;BME280;63709;53.258;-8.814;2023-04-15T04:06:59;101736.19;;;7.17;100.00
64340;BME280;63709;53.258;-8.814;2023-04-15T04:09:25;101739.00;;;7.14;100.00
64340;BME280;63709;53.258;-8.814;2023-04-15T04:11:53;101745.53;;;7.26;100.00
64340;BME280;63709;53.258;-8.814;2023-04-15T04:14:19;101740.22;;;7.26;100.00
64340;BME280;63709;53.258;-8.814;2023-04-15T04:16:44;101742.22;;;7.21;100.00
64340;BME280;63709;53.258;-8.814;2023-04-15T04:19:10;101749.81;;;7.10;100.00
64340;BME280;63709;53.258;-8.814;2023-04-15T04:21:37;101741.88;;;7.28;100.00
64340;BME280;63709;53.258;-8.814;2023-04-15T04:24:05;101727.44;;;7.15;100.00
64340;BME280;63709;53.258;-8.814;2023-04-15T04:26:30;101737.69;;;7.23;100.00
64340;BME280;63709;53.258;-8.814;2023-04-15T04:28:55;101726.56;;;7.15;100.00
64340;BME280;63709;53.258;-8.814;2023-04-15T04:31:21;101725.78;;;6.94;100.00
64340;BME280;63709;53.258;-8.814;2023-04-15T04:33:48;101731.81;;;6.97;100.00
64340;BME280;63709;53.258;-8.814;2023-04-15T04:36:15;101741.91;;;7.08;100.00
64340;BME280;63709;53.258;-8.814;2023-04-15T04:38:41;101731.50;;;7.03;100.00
64340;BME280;63709;53.258;-8.814;2023-04-15T04:41:07;101749.81;;;7.10;100.00
64340;BME280;63709;53.258;-8.814;2023-04-15T04:43:32;101752.41;;;7.11;100.00
64340;BME280;63709;53.258;-8.814;2023-04-15T04:46:04;101747.44;;;7.03;100.00
64340;BME280;63709;53.258;-8.814;2023-04-15T04:48:30;101752.75;;;7.03;100.00
64340;BME280;63709;53.258;-8.814;2023-04-15T04:50:56;101756.25;;;7.04;100.00
64340;BME280;63709;53.258;-8.814;2023-04-15T04:53:21;101762.16;;;7.11;100.00
64340;BME280;63709;53.258;-8.814;2023-04-15T04:55:47;101760.66;;;7.05;100.00
64340;BME280;63709;53.258;-8.814;2023-04-15T04:58:18;101772.91;;;7.08;100.00
64340;BME280;63709;53.258;-8.814;2023-04-15T05:00:44;101777.00;;;7.15;100.00
64340;BME280;63709;53.258;-8.814;2023-04-15T05:03:11;101763.50;;;7.00;100.00
64340;BME280;63709;53.258;-8.814;2023-04-15T05:05:36;101777.22;;;7.10;100.00
64340;BME280;63709;53.258;-8.814;2023-04-15T05:08:05;101773.97;;;7.03;100.00
64340;BME280;63709;53.258;-8.814;2023-04-15T05:10:32;101778.38;;;7.05;100.00
64340;BME280;63709;53.258;-8.814;2023-04-15T05:12:57;101792.56;;;7.03;100.00
64340;BME280;63709;53.258;-8.814;2023-04-15T05:15:23;101793.72;;;6.98;100.00
64340;BME280;63709;53.258;-8.814;2023-04-15T05:17:51;101798.44;;;6.91;100.00
64340;BME280;63709;53.258;-8.814;2023-04-15T05:20:17;101806.31;;;6.93;100.00
64340;BME280;63709;53.258;-8.814;2023-04-15T05:22:42;101804.84;;;6.86;100.00
64340;BME280;63709;53.258;-8.814;2023-04-15T05:25:09;101814.34;;;6.91;100.00
64340;BME280;63709;53.258;-8.814;2023-04-15T05:27:34;101799.22;;;6.73;100.00
64340;BME280;63709;53.258;-8.814;2023-04-15T05:30:01;101806.25;;;6.74;100.00
64340;BME280;63709;53.258;-8.814;2023-04-15T05:32:26;101825.03;;;6.69;100.00
64340;BME280;63709;53.258;-8.814;2023-04-15T05:34:52;101825.16;;;6.66;100.00
64340;BME280;63709;53.258;-8.814;2023-04-15T05:37:17;101825.28;;;6.63;100.00
64340;BME280;63709;53.258;-8.814;2023-04-15T05:39:45;101814.88;;;6.59;100.00
64340;BME280;63709;53.258;-8.814;2023-04-15T05:42:11;101829.22;;;6.75;100.00
64340;BME280;63709;53.258;-8.814;2023-04-15T05:44:37;101842.81;;;6.88;100.00
64340;BME280;63709;53.258;-8.814;2023-04-15T05:47:02;101845.66;;;6.83;100.00
64340;BME280;63709;53.258;-8.814;2023-04-15T05:49:28;101840.47;;;6.80;100.00
64340;BME280;63709;53.258;-8.814;2023-04-15T05:51:54;101839.50;;;6.83;100.00
64340;BME280;63709;53.258;-8.814;2023-04-15T05:54:20;101845.34;;;6.91;100.00
64340;BME280;63709;53.258;-8.814;2023-04-15T05:56:46;101828.19;;;6.77;100.00
64340;BME280;63709;53.258;-8.814;2023-04-15T05:59:12;101848.31;;;6.83;100.00
64340;BME280;63709;53.258;-8.814;2023-04-15T06:01:37;101847.13;;;6.90;100.00
64340;BME280;63709;53.258;-8.814;2023-04-15T06:04:03;101859.34;;;6.94;100.00
64340;BME280;63709;53.258;-8.814;2023-04-15T06:06:28;101845.38;;;6.89;100.00
64340;BME280;63709;53.258;-8.814;2023-04-15T06:08:54;101856.56;;;6.97;100.00
64340;BME280;63709;53.258;-8.814;2023-04-15T06:11:20;101849.38;;;6.99;100.00
64340;BME280;63709;53.258;-8.814;2023-04-15T06:13:46;101850.09;;;7.03;100.00
64340;BME280;63709;53.258;-8.814;2023-04-15T06:16:12;101858.19;;;7.00;100.00
64340;BME280;63709;53.258;-8.814;2023-04-15T06:18:38;101865.66;;;7.12;100.00
64340;BME280;63709;53.258;-8.814;2023-04-15T06:21:04;101861.63;;;7.22;100.00
64340;BME280;63709;53.258;-8.814;2023-04-15T06:23:30;101862.22;;;7.29;100.00
64340;BME280;63709;53.258;-8.814;2023-04-15T06:25:58;101874.91;;;7.43;100.00
64340;BME280;63709;53.258;-8.814;2023-04-15T06:28:24;101879.59;;;7.57;100.00
64340;BME280;63709;53.258;-8.814;2023-04-15T06:30:49;101880.97;;;7.65;100.00
64340;BME280;63709;53.258;-8.814;2023-04-15T06:33:15;101884.59;;;7.83;100.00
64340;BME280;63709;53.258;-8.814;2023-04-15T06:35:41;101885.72;;;7.96;100.00
64340;BME280;63709;53.258;-8.814;2023-04-15T06:38:06;101881.06;;;8.02;100.00
64340;BME280;63709;53.258;-8.814;2023-04-15T06:40:31;101883.00;;;7.98;100.00
64340;BME280;63709;53.258;-8.814;2023-04-15T06:42:57;101893.19;;;8.07;100.00
64340;BME280;63709;53.258;-8.814;2023-04-15T06:45:23;101890.88;;;8.18;100.00
64340;BME280;63709;53.258;-8.814;2023-04-15T06:47:51;101905.09;;;8.36;100.00
64340;BME280;63709;53.258;-8.814;2023-04-15T06:50:16;101900.97;;;8.50;100.00
64340;BME280;63709;53.258;-8.814;2023-04-15T06:52:42;101912.41;;;8.69;100.00
64340;BME280;63709;53.258;-8.814;2023-04-15T06:55:08;101908.81;;;8.70;100.00
64340;BME280;63709;53.258;-8.814;2023-04-15T06:57:34;101930.75;;;8.92;100.00
64340;BME280;63709;53.258;-8.814;2023-04-15T07:00:00;101915.09;;;9.04;100.00
64340;BME280;63709;53.258;-8.814;2023-04-15T07:02:26;101915.09;;;9.21;100.00
64340;BME280;63709;53.258;-8.814;2023-04-15T07:04:51;101917.47;;;9.27;100.00
64340;BME280;63709;53.258;-8.814;2023-04-15T07:07:17;101921.84;;;9.11;100.00
64340;BME280;63709;53.258;-8.814;2023-04-15T07:09:43;101925.66;;;9.23;100.00
64340;BME280;63709;53.258;-8.814;2023-04-15T07:12:09;101923.03;;;9.56;100.00
64340;BME280;63709;53.258;-8.814;2023-04-15T07:14:34;101933.34;;;9.79;100.00
64340;BME280;63709;53.258;-8.814;2023-04-15T07:17:01;101927.88;;;9.98;100.00
64340;BME280;63709;53.258;-8.814;2023-04-15T07:19:27;101921.06;;;9.92;100.00
64340;BME280;63709;53.258;-8.814;2023-04-15T07:21:54;101907.19;;;9.86;100.00
64340;BME280;63709;53.258;-8.814;2023-04-15T07:24:20;101923.16;;;10.19;100.00
64340;BME280;63709;53.258;-8.814;2023-04-15T07:26:47;101921.91;;;10.26;100.00
64340;BME280;63709;53.258;-8.814;2023-04-15T07:29:20;101925.94;;;10.49;100.00
64340;BME280;63709;53.258;-8.814;2023-04-15T07:31:46;101930.47;;;10.79;100.00
64340;BME280;63709;53.258;-8.814;2023-04-15T07:34:12;101928.19;;;11.03;100.00
64340;BME280;63709;53.258;-8.814;2023-04-15T07:36:38;101939.63;;;11.35;100.00
64340;BME280;63709;53.258;-8.814;2023-04-15T07:39:04;101942.78;;;11.56;100.00
64340;BME280;63709;53.258;-8.814;2023-04-15T07:41:30;101930.22;;;11.72;100.00
64340;BME280;63709;53.258;-8.814;2023-04-15T07:43:56;101918.66;;;11.86;100.00
64340;BME280;63709;53.258;-8.814;2023-04-15T07:46:23;101925.47;;;12.06;100.00
64340;BME280;63709;53.258;-8.814;2023-04-15T07:48:52;101930.06;;;12.31;100.00
64340;BME280;63709;53.258;-8.814;2023-04-15T07:51:19;101930.22;;;12.56;100.00
64340;BME280;63709;53.258;-8.814;2023-04-15T07:53:47;101925.75;;;12.57;100.00
64340;BME280;63709;53.258;-8.814;2023-04-15T07:56:14;101933.50;;;12.74;100.00
64340;BME280;63709;53.258;-8.814;2023-04-15T07:58:41;101929.78;;;12.90;100.00
64340;BME280;63709;53.258;-8.814;2023-04-15T08:01:07;101924.16;;;13.07;100.00
64340;BME280;63709;53.258;-8.814;2023-04-15T08:03:32;101930.38;;;13.07;100.00
64340;BME280;63709;53.258;-8.814;2023-04-15T08:05:58;101939.53;;;13.18;100.00
64340;BME280;63709;53.258;-8.814;2023-04-15T08:08:24;101943.91;;;13.19;100.00
64340;BME280;63709;53.258;-8.814;2023-04-15T08:10:50;101942.84;;;13.21;100.00
64340;BME280;63709;53.258;-8.814;2023-04-15T08:13:16;101935.88;;;13.19;100.00
64340;BME280;63709;53.258;-8.814;2023-04-15T08:15:42;101941.72;;;13.25;100.00
64340;BME280;63709;53.258;-8.814;2023-04-15T08:18:09;101929.06;;;13.27;100.00
64340;BME280;63709;53.258;-8.814;2023-04-15T08:20:35;101931.22;;;13.35;100.00
64340;BME280;63709;53.258;-8.814;2023-04-15T08:23:03;101930.88;;;13.27;100.00
64340;BME280;63709;53.258;-8.814;2023-04-15T08:25:29;101940.78;;;13.52;100.00
64340;BME280;63709;53.258;-8.814;2023-04-15T08:27:56;101936.59;;;13.48;100.00
64340;BME280;63709;53.258;-8.814;2023-04-15T08:30:23;101938.84;;;13.54;100.00
64340;BME280;63709;53.258;-8.814;2023-04-15T08:32:49;101927.03;;;13.56;100.00
64340;BME280;63709;53.258;-8.814;2023-04-15T08:35:16;101926.06;;;13.70;100.00
64340;BME280;63709;53.258;-8.814;2023-04-15T08:37:43;101928.00;;;13.81;100.00
64340;BME280;63709;53.258;-8.814;2023-04-15T08:40:09;101940.13;;;13.87;100.00
64340;BME280;63709;53.258;-8.814;2023-04-15T08:42:44;101940.53;;;13.93;100.00
64340;BME280;63709;53.258;-8.814;2023-04-15T08:45:12;101934.75;;;13.87;100.00
64340;BME280;63709;53.258;-8.814;2023-04-15T08:47:39;101934.31;;;13.93;100.00
64340;BME280;63709;53.258;-8.814;2023-04-15T08:50:08;101938.06;;;14.03;100.00
64340;BME280;63709;53.258;-8.814;2023-04-15T08:52:34;101941.19;;;14.10;100.00
64340;BME280;63709;53.258;-8.814;2023-04-15T08:55:01;101946.72;;;14.19;100.00
64340;BME280;63709;53.258;-8.814;2023-04-15T08:57:28;101944.81;;;14.21;100.00
64340;BME280;63709;53.258;-8.814;2023-04-15T08:59:57;101925.88;;;14.36;100.00
64340;BME280;63709;53.258;-8.814;2023-04-15T09:02:25;101939.50;;;14.33;100.00
64340;BME280;63709;53.258;-8.814;2023-04-15T09:04:53;101922.06;;;14.38;100.00
64340;BME280;63709;53.258;-8.814;2023-04-15T09:07:19;101929.50;;;14.35;100.00
64340;BME280;63709;53.258;-8.814;2023-04-15T09:09:45;101952.34;;;14.53;100.00
64340;BME280;63709;53.258;-8.814;2023-04-15T09:12:11;101949.34;;;14.45;100.00
64340;BME280;63709;53.258;-8.814;2023-04-15T09:14:39;101935.00;;;14.33;100.00
64340;BME280;63709;53.258;-8.814;2023-04-15T09:17:05;101945.47;;;14.49;100.00
64340;BME280;63709;53.258;-8.814;2023-04-15T09:19:34;101940.75;;;14.52;100.00
64340;BME280;63709;53.258;-8.814;2023-04-15T09:22:01;101934.53;;;14.52;100.00
64340;BME280;63709;53.258;-8.814;2023-04-15T09:24:35;101938.03;;;14.65;100.00
64340;BME280;63709;53.258;-8.814;2023-04-15T09:27:02;101926.25;;;14.55;100.00
64340;BME280;63709;53.258;-8.814;2023-04-15T09:29:30;101941.63;;;14.77;100.00
64340;BME280;63709;53.258;-8.814;2023-04-15T09:32:11;101925.94;;;14.71;100.00
64340;BME280;63709;53.258;-8.814;2023-04-15T09:34:38;101931.88;;;14.76;100.00
64340;BME280;63709;53.258;-8.814;2023-04-15T09:37:03;101934.19;;;14.81;100.00
64340;BME280;63709;53.258;-8.814;2023-04-15T09:42:11;101941.19;;;14.83;100.00
64340;BME280;63709;53.258;-8.814;2023-04-15T09:44:36;101930.34;;;14.96;100.00
64340;BME280;63709;53.258;-8.814;2023-04-15T09:47:02;101914.19;;;14.85;100.00
64340;BME280;63709;53.258;-8.814;2023-04-15T09:49:28;101922.13;;;14.86;100.00
64340;BME280;63709;53.258;-8.814;2023-04-15T09:52:00;101940.13;;;14.97;100.00
64340;BME280;63709;53.258;-8.814;2023-04-15T09:54:33;101940.13;;;14.97;100.00
64340;BME280;63709;53.258;-8.814;2023-04-15T09:57:09;101945.00;;;14.92;100.00
64340;BME280;63709;53.258;-8.814;2023-04-15T09:59:36;101926.72;;;14.73;100.00
64340;BME280;63709;53.258;-8.814;2023-04-15T10:02:05;101942.66;;;14.87;100.00
64340;BME280;63709;53.258;-8.814;2023-04-15T10:04:34;101940.25;;;14.95;100.00
64340;BME280;63709;53.258;-8.814;2023-04-15T10:07:05;101940.13;;;14.97;100.00
64340;BME280;63709;53.258;-8.814;2023-04-15T10:09:34;101941.59;;;15.01;100.00
64340;BME280;63709;53.258;-8.814;2023-04-15T10:12:02;101943.03;;;14.94;100.00
64340;BME280;63709;53.258;-8.814;2023-04-15T10:14:32;101942.13;;;15.06;100.00
64340;BME280;63709;53.258;-8.814;2023-04-15T10:17:00;101944.81;;;15.06;100.00
64340;BME280;63709;53.258;-8.814;2023-04-15T10:19:30;101947.97;;;15.00;100.00
64340;BME280;63709;53.258;-8.814;2023-04-15T10:21:58;101950.91;;;15.08;100.00
64340;BME280;63709;53.258;-8.814;2023-04-15T10:24:25;101937.66;;;14.94;100.00
64340;BME280;63709;53.258;-8.814;2023-04-15T10:26:52;101947.34;;;14.96;100.00
64340;BME280;63709;53.258;-8.814;2023-04-15T10:29:19;101943.09;;;15.05;100.00
64340;BME280;63709;53.258;-8.814;2023-04-15T10:31:46;101952.13;;;15.04;100.00
64340;BME280;63709;53.258;-8.814;2023-04-15T10:34:13;101956.78;;;15.02;100.00
64340;BME280;63709;53.258;-8.814;2023-04-15T10:36:40;101946.72;;;14.93;100.00
64340;BME280;63709;53.258;-8.814;2023-04-15T10:44:36;101957.09;;;14.97;100.00
64340;BME280;63709;53.258;-8.814;2023-04-15T10:47:09;101955.28;;;14.98;100.00
64340;BME280;63709;53.258;-8.814;2023-04-15T10:49:48;101941.59;;;15.01;100.00
64340;BME280;63709;53.258;-8.814;2023-04-15T10:52:26;101936.72;;;14.95;100.00
64340;BME280;63709;53.258;-8.814;2023-04-15T10:55:30;101947.31;;;15.20;100.00
64340;BME280;63709;53.258;-8.814;2023-04-15T10:58:00;101939.22;;;15.09;100.00
64340;BME280;63709;53.258;-8.814;2023-04-15T11:00:30;101936.44;;;15.22;100.00
64340;BME280;63709;53.258;-8.814;2023-04-15T11:03:07;101935.28;;;15.02;100.00
64340;BME280;63709;53.258;-8.814;2023-04-15T11:08:10;101944.63;;;15.20;100.00
64340;BME280;63709;53.258;-8.814;2023-04-15T11:13:13;101937.25;;;15.11;100.00
64340;BME280;63709;53.258;-8.814;2023-04-15T11:15:41;101932.13;;;15.19;100.00
64340;BME280;63709;53.258;-8.814;2023-04-15T11:18:12;101931.06;;;15.22;100.00
64340;BME280;63709;53.258;-8.814;2023-04-15T11:20:41;101929.97;;;15.24;100.00
64340;BME280;63709;53.258;-8.814;2023-04-15T11:23:08;101925.22;;;15.39;100.00
64340;BME280;63709;53.258;-8.814;2023-04-15T11:25:35;101910.03;;;15.38;100.00
64340;BME280;63709;53.258;-8.814;2023-04-15T11:28:04;101918.25;;;15.37;100.00
64340;BME280;63709;53.258;-8.814;2023-04-15T11:30:32;101910.66;;;15.42;100.00
64340;BME280;63709;53.258;-8.814;2023-04-15T11:33:01;101929.19;;;15.58;100.00
64340;BME280;63709;53.258;-8.814;2023-04-15T11:35:29;101925.78;;;15.67;100.00
64340;BME280;63709;53.258;-8.814;2023-04-15T11:37:56;101908.13;;;15.63;98.19
64340;BME280;63709;53.258;-8.814;2023-04-15T11:40:25;101923.00;;;15.68;97.66
64340;BME280;63709;53.258;-8.814;2023-04-15T11:43:12;101921.47;;;15.64;93.06
64340;BME280;63709;53.258;-8.814;2023-04-15T11:45:59;101931.75;;;15.59;91.09
64340;BME280;63709;53.258;-8.814;2023-04-15T11:53:35;101943.53;;;15.81;92.19
64340;BME280;63709;53.258;-8.814;2023-04-15T11:56:04;101942.06;;;15.77;90.55
64340;BME280;63709;53.258;-8.814;2023-04-15T11:58:30;101949.78;;;15.70;89.30
64340;BME280;63709;53.258;-8.814;2023-04-15T12:00:59;101937.59;;;15.64;88.56
64340;BME280;63709;53.258;-8.814;2023-04-15T12:03:27;101949.41;;;15.75;90.90
64340;BME280;63709;53.258;-8.814;2023-04-15T12:09:02;101940.56;;;15.61;96.18
64340;BME280;63709;53.258;-8.814;2023-04-15T12:16:49;101944.75;;;15.65;100.00
64340;BME280;63709;53.258;-8.814;2023-04-15T12:19:18;101937.34;;;15.56;100.00
64340;BME280;63709;53.258;-8.814;2023-04-15T12:21:47;101930.88;;;15.47;100.00
64340;BME280;63709;53.258;-8.814;2023-04-15T12:24:13;101948.13;;;15.56;100.00
64340;BME280;63709;53.258;-8.814;2023-04-15T12:26:51;101940.81;;;15.58;100.00
64340;BME280;63709;53.258;-8.814;2023-04-15T12:29:17;101940.84;;;15.69;100.00
64340;BME280;63709;53.258;-8.814;2023-04-15T12:31:52;101933.09;;;15.65;100.00
64340;BME280;63709;53.258;-8.814;2023-04-15T12:34:26;101941.84;;;15.80;100.00
64340;BME280;63709;53.258;-8.814;2023-04-15T12:36:57;101929.09;;;15.82;100.00
64340;BME280;63709;53.258;-8.814;2023-04-15T12:39:27;101935.47;;;15.92;100.00
64340;BME280;63709;53.258;-8.814;2023-04-15T12:41:53;101933.25;;;15.86;100.00
64340;BME280;63709;53.258;-8.814;2023-04-15T12:44:20;101929.00;;;16.06;100.00
64340;BME280;63709;53.258;-8.814;2023-04-15T12:46:46;101931.78;;;15.93;100.00
64340;BME280;63709;53.258;-8.814;2023-04-15T12:49:13;101927.25;;;15.93;100.00
64340;BME280;63709;53.258;-8.814;2023-04-15T12:51:40;101938.53;;;15.87;100.00
64340;BME280;63709;53.258;-8.814;2023-04-15T12:54:06;101936.31;;;15.92;98.89
64340;BME280;63709;53.258;-8.814;2023-04-15T12:56:31;101921.63;;;15.74;100.00
64340;BME280;63709;53.258;-8.814;2023-04-15T12:58:57;101934.72;;;15.79;100.00
64340;BME280;63709;53.258;-8.814;2023-04-15T13:01:22;101928.25;;;15.81;100.00